Aviation Digital Data Service (ADDS)

Output produced by METARs form (0917 UTC 19 August 2017)
found at http://aviationweather.gov/adds/metars/
 
METAR text: KRNT 190853Z AUTO 35005KT 10SM BKN043 OVC050 18/12 A3015 RMK AO2 SLP213 T01780122 50004
Conditions at: KRNT (RENTON , WA, US) observed 0853 UTC 19 August 2017
Temperature: 17.8°C (64°F)
Dewpoint: 12.2°C (54°F) [RH = 70%]
Pressure (altimeter): 30.15 inches Hg (1021.1 mb)
[Sea-level pressure: 1021.3 mb]
Winds: from the N (350 degrees) at 6 MPH (5 knots; 2.6 m/s)
Visibility: 10 or more miles (16+ km)
Ceiling: 4300 feet AGL
Clouds: broken clouds at 4300 feet AGL
overcast cloud deck at 5000 feet AGL
Weather: automated observation with no human augmentation;
there may or may not be significant weather present at this time

METAR text: KRNT 190753Z AUTO 34008KT 10SM OVC041 18/13 A3015 RMK AO2 SLP213 T01830128 402390144
Conditions at: KRNT (RENTON , WA, US) observed 0753 UTC 19 August 2017
Temperature: 18.3°C (65°F)
Dewpoint: 12.8°C (55°F) [RH = 70%]
Pressure (altimeter): 30.15 inches Hg (1021.1 mb)
[Sea-level pressure: 1021.3 mb]
Winds: from the NNW (340 degrees) at 9 MPH (8 knots; 4.2 m/s)
Visibility: 10 or more miles (16+ km)
Ceiling: 4100 feet AGL
Clouds: overcast cloud deck at 4100 feet AGL
Weather: automated observation with no human augmentation;
there may or may not be significant weather present at this time